sensor_id;sensor_type;location;lat;lon;timestamp;P1;durP1;ratioP1;P2;durP2;ratioP2
45358;SDS011;31096;49.292;8.710;2022-09-17T00:01:21;3.53;;;1.77;;
45358;SDS011;31096;49.292;8.710;2022-09-17T00:06:13;5.05;;;1.50;;
45358;SDS011;31096;49.292;8.710;2022-09-17T00:11:13;3.70;;;1.70;;
45358;SDS011;31096;49.292;8.710;2022-09-17T00:16:10;3.73;;;1.30;;
45358;SDS011;31096;49.292;8.710;2022-09-17T00:21:01;3.13;;;1.33;;
45358;SDS011;31096;49.292;8.710;2022-09-17T00:25:52;3.65;;;1.60;;
45358;SDS011;31096;49.292;8.710;2022-09-17T00:30:43;3.30;;;1.60;;
45358;SDS011;31096;49.292;8.710;2022-09-17T00:35:35;3.40;;;1.27;;
45358;SDS011;31096;49.292;8.710;2022-09-17T00:40:26;6.47;;;1.63;;
45358;SDS011;31096;49.292;8.710;2022-09-17T00:45:16;3.23;;;1.70;;
45358;SDS011;31096;49.292;8.710;2022-09-17T00:50:09;4.95;;;1.98;;
45358;SDS011;31096;49.292;8.710;2022-09-17T01:00:45;5.37;;;1.60;;
45358;SDS011;31096;49.292;8.710;2022-09-17T01:05:41;6.20;;;1.70;;
45358;SDS011;31096;49.292;8.710;2022-09-17T01:21:42;11.27;;;1.90;;
45358;SDS011;31096;49.292;8.710;2022-09-17T01:37:44;3.67;;;1.75;;
45358;SDS011;31096;49.292;8.710;2022-09-17T01:43:03;3.40;;;1.70;;
45358;SDS011;31096;49.292;8.710;2022-09-17T01:48:20;3.70;;;1.87;;
45358;SDS011;31096;49.292;8.710;2022-09-17T01:53:16;6.20;;;1.88;;
45358;SDS011;31096;49.292;8.710;2022-09-17T01:58:15;3.22;;;1.70;;
45358;SDS011;31096;49.292;8.710;2022-09-17T02:03:31;4.17;;;1.90;;
45358;SDS011;31096;49.292;8.710;2022-09-17T02:08:30;3.35;;;1.80;;
45358;SDS011;31096;49.292;8.710;2022-09-17T02:13:41;4.65;;;1.83;;
45358;SDS011;31096;49.292;8.710;2022-09-17T02:24:00;3.15;;;1.52;;
45358;SDS011;31096;49.292;8.710;2022-09-17T02:29:28;4.23;;;1.90;;
45358;SDS011;31096;49.292;8.710;2022-09-17T02:34:22;3.97;;;1.83;;
45358;SDS011;31096;49.292;8.710;2022-09-17T02:39:16;8.07;;;1.70;;
45358;SDS011;31096;49.292;8.710;2022-09-17T02:44:17;6.03;;;2.10;;
45358;SDS011;31096;49.292;8.710;2022-09-17T02:49:41;3.40;;;1.60;;
45358;SDS011;31096;49.292;8.710;2022-09-17T03:00:17;3.60;;;1.55;;
45358;SDS011;31096;49.292;8.710;2022-09-17T03:05:10;3.83;;;1.83;;
45358;SDS011;31096;49.292;8.710;2022-09-17T03:10:02;5.80;;;1.80;;
45358;SDS011;31096;49.292;8.710;2022-09-17T03:14:54;3.90;;;1.90;;
45358;SDS011;31096;49.292;8.710;2022-09-17T03:19:45;6.03;;;2.35;;
45358;SDS011;31096;49.292;8.710;2022-09-17T03:24:35;3.97;;;2.30;;
45358;SDS011;31096;49.292;8.710;2022-09-17T03:29:26;4.17;;;2.00;;
45358;SDS011;31096;49.292;8.710;2022-09-17T03:34:16;4.73;;;1.90;;
45358;SDS011;31096;49.292;8.710;2022-09-17T03:39:07;3.70;;;1.95;;
45358;SDS011;31096;49.292;8.710;2022-09-17T03:43:58;3.83;;;1.97;;
45358;SDS011;31096;49.292;8.710;2022-09-17T03:48:48;4.23;;;1.70;;
45358;SDS011;31096;49.292;8.710;2022-09-17T03:53:39;8.20;;;2.22;;
45358;SDS011;31096;49.292;8.710;2022-09-17T03:58:30;4.07;;;1.97;;
45358;SDS011;31096;49.292;8.710;2022-09-17T04:03:21;5.13;;;2.00;;
45358;SDS011;31096;49.292;8.710;2022-09-17T04:08:12;3.90;;;2.10;;
45358;SDS011;31096;49.292;8.710;2022-09-17T04:13:03;3.80;;;2.23;;
45358;SDS011;31096;49.292;8.710;2022-09-17T04:17:55;4.43;;;2.30;;
45358;SDS011;31096;49.292;8.710;2022-09-17T04:22:49;4.47;;;2.30;;
45358;SDS011;31096;49.292;8.710;2022-09-17T04:27:40;3.70;;;2.00;;
45358;SDS011;31096;49.292;8.710;2022-09-17T04:32:30;5.57;;;2.40;;
45358;SDS011;31096;49.292;8.710;2022-09-17T04:37:21;4.63;;;2.30;;
45358;SDS011;31096;49.292;8.710;2022-09-17T04:42:14;6.18;;;2.10;;
45358;SDS011;31096;49.292;8.710;2022-09-17T04:47:05;3.97;;;1.90;;
45358;SDS011;31096;49.292;8.710;2022-09-17T04:51:55;5.13;;;1.87;;
45358;SDS011;31096;49.292;8.710;2022-09-17T04:56:46;8.98;;;2.58;;
45358;SDS011;31096;49.292;8.710;2022-09-17T05:01:37;4.07;;;1.50;;
45358;SDS011;31096;49.292;8.710;2022-09-17T05:06:27;4.87;;;2.20;;
45358;SDS011;31096;49.292;8.710;2022-09-17T05:11:18;5.00;;;2.05;;
45358;SDS011;31096;49.292;8.710;2022-09-17T05:16:09;4.00;;;2.00;;
45358;SDS011;31096;49.292;8.710;2022-09-17T05:20:59;4.50;;;2.37;;
45358;SDS011;31096;49.292;8.710;2022-09-17T05:25:50;4.77;;;2.33;;
45358;SDS011;31096;49.292;8.710;2022-09-17T05:30:41;4.57;;;2.03;;
45358;SDS011;31096;49.292;8.710;2022-09-17T05:35:32;4.20;;;2.10;;
45358;SDS011;31096;49.292;8.710;2022-09-17T05:40:25;5.00;;;2.05;;
45358;SDS011;31096;49.292;8.710;2022-09-17T05:45:16;5.07;;;2.33;;
45358;SDS011;31096;49.292;8.710;2022-09-17T05:50:07;5.00;;;2.20;;
45358;SDS011;31096;49.292;8.710;2022-09-17T05:54:58;4.90;;;2.13;;
45358;SDS011;31096;49.292;8.710;2022-09-17T05:59:49;5.03;;;2.30;;
45358;SDS011;31096;49.292;8.710;2022-09-17T06:04:40;4.20;;;2.27;;
45358;SDS011;31096;49.292;8.710;2022-09-17T06:09:30;5.07;;;2.40;;
45358;SDS011;31096;49.292;8.710;2022-09-17T06:14:21;5.37;;;2.60;;
45358;SDS011;31096;49.292;8.710;2022-09-17T06:19:11;4.63;;;2.50;;
45358;SDS011;31096;49.292;8.710;2022-09-17T06:24:02;6.43;;;2.50;;
45358;SDS011;31096;49.292;8.710;2022-09-17T06:28:53;4.17;;;2.30;;
45358;SDS011;31096;49.292;8.710;2022-09-17T06:33:43;4.67;;;2.63;;
45358;SDS011;31096;49.292;8.710;2022-09-17T06:38:34;4.60;;;2.10;;
45358;SDS011;31096;49.292;8.710;2022-09-17T06:43:25;7.37;;;2.30;;
45358;SDS011;31096;49.292;8.710;2022-09-17T06:48:16;5.00;;;2.20;;
45358;SDS011;31096;49.292;8.710;2022-09-17T06:53:07;6.43;;;2.73;;
45358;SDS011;31096;49.292;8.710;2022-09-17T06:57:58;4.20;;;2.20;;
45358;SDS011;31096;49.292;8.710;2022-09-17T07:02:59;5.13;;;2.22;;
45358;SDS011;31096;49.292;8.710;2022-09-17T07:07:50;3.93;;;2.17;;
45358;SDS011;31096;49.292;8.710;2022-09-17T07:12:41;6.17;;;2.70;;
45358;SDS011;31096;49.292;8.710;2022-09-17T07:17:32;3.97;;;2.40;;
45358;SDS011;31096;49.292;8.710;2022-09-17T07:22:23;4.57;;;2.50;;
45358;SDS011;31096;49.292;8.710;2022-09-17T07:27:17;4.15;;;2.35;;
45358;SDS011;31096;49.292;8.710;2022-09-17T07:32:07;6.63;;;2.60;;
45358;SDS011;31096;49.292;8.710;2022-09-17T07:36:58;6.13;;;2.67;;
45358;SDS011;31096;49.292;8.710;2022-09-17T07:41:49;5.20;;;2.33;;
45358;SDS011;31096;49.292;8.710;2022-09-17T07:46:39;5.67;;;2.70;;
45358;SDS011;31096;49.292;8.710;2022-09-17T07:51:30;6.43;;;2.80;;
45358;SDS011;31096;49.292;8.710;2022-09-17T07:56:21;4.68;;;2.35;;
45358;SDS011;31096;49.292;8.710;2022-09-17T08:01:12;5.50;;;2.50;;
45358;SDS011;31096;49.292;8.710;2022-09-17T08:06:06;4.85;;;2.42;;
45358;SDS011;31096;49.292;8.710;2022-09-17T08:11:03;4.07;;;2.30;;
45358;SDS011;31096;49.292;8.710;2022-09-17T08:15:59;4.63;;;2.10;;
45358;SDS011;31096;49.292;8.710;2022-09-17T08:20:59;4.97;;;2.27;;
45358;SDS011;31096;49.292;8.710;2022-09-17T08:25:53;7.15;;;2.38;;
45358;SDS011;31096;49.292;8.710;2022-09-17T08:30:45;5.88;;;2.30;;
45358;SDS011;31096;49.292;8.710;2022-09-17T08:35:37;6.13;;;2.30;;
45358;SDS011;31096;49.292;8.710;2022-09-17T08:40:27;7.50;;;2.10;;
45358;SDS011;31096;49.292;8.710;2022-09-17T08:45:18;4.60;;;2.13;;
45358;SDS011;31096;49.292;8.710;2022-09-17T08:55:44;5.03;;;2.43;;
45358;SDS011;31096;49.292;8.710;2022-09-17T09:00:44;5.03;;;2.20;;
45358;SDS011;31096;49.292;8.710;2022-09-17T09:05:45;4.32;;;1.98;;
45358;SDS011;31096;49.292;8.710;2022-09-17T09:10:43;4.97;;;2.20;;
45358;SDS011;31096;49.292;8.710;2022-09-17T09:15:46;5.83;;;2.30;;
45358;SDS011;31096;49.292;8.710;2022-09-17T09:20:51;6.57;;;2.60;;
45358;SDS011;31096;49.292;8.710;2022-09-17T09:36:21;7.70;;;2.10;;
45358;SDS011;31096;49.292;8.710;2022-09-17T09:41:12;4.50;;;1.90;;
45358;SDS011;31096;49.292;8.710;2022-09-17T09:51:24;6.05;;;1.90;;
45358;SDS011;31096;49.292;8.710;2022-09-17T09:56:53;6.87;;;2.47;;
45358;SDS011;31096;49.292;8.710;2022-09-17T10:01:55;5.93;;;2.00;;
45358;SDS011;31096;49.292;8.710;2022-09-17T10:06:47;6.53;;;2.13;;
45358;SDS011;31096;49.292;8.710;2022-09-17T10:11:40;4.82;;;1.88;;
45358;SDS011;31096;49.292;8.710;2022-09-17T10:16:31;4.60;;;1.60;;
45358;SDS011;31096;49.292;8.710;2022-09-17T10:21:32;6.10;;;2.63;;
45358;SDS011;31096;49.292;8.710;2022-09-17T10:26:26;4.85;;;1.90;;
45358;SDS011;31096;49.292;8.710;2022-09-17T10:31:24;4.63;;;2.27;;
45358;SDS011;31096;49.292;8.710;2022-09-17T10:36:15;5.15;;;1.50;;
45358;SDS011;31096;49.292;8.710;2022-09-17T10:41:10;4.70;;;2.10;;
45358;SDS011;31096;49.292;8.710;2022-09-17T10:46:04;4.40;;;1.90;;
45358;SDS011;31096;49.292;8.710;2022-09-17T10:51:00;7.30;;;2.10;;
45358;SDS011;31096;49.292;8.710;2022-09-17T11:12:00;4.90;;;1.87;;
45358;SDS011;31096;49.292;8.710;2022-09-17T11:38:47;4.45;;;2.10;;
45358;SDS011;31096;49.292;8.710;2022-09-17T11:43:41;3.97;;;2.05;;
45358;SDS011;31096;49.292;8.710;2022-09-17T11:54:25;3.83;;;1.45;;
45358;SDS011;31096;49.292;8.710;2022-09-17T12:04:45;4.30;;;1.60;;
45358;SDS011;31096;49.292;8.710;2022-09-17T12:09:52;5.57;;;1.60;;
45358;SDS011;31096;49.292;8.710;2022-09-17T12:14:50;3.50;;;1.70;;
45358;SDS011;31096;49.292;8.710;2022-09-17T12:19:53;4.00;;;1.63;;
45358;SDS011;31096;49.292;8.710;2022-09-17T12:24:51;5.93;;;1.83;;
45358;SDS011;31096;49.292;8.710;2022-09-17T12:51:23;4.13;;;1.88;;
45358;SDS011;31096;49.292;8.710;2022-09-17T13:01:40;3.78;;;1.73;;
45358;SDS011;31096;49.292;8.710;2022-09-17T13:17:33;5.13;;;1.57;;
45358;SDS011;31096;49.292;8.710;2022-09-17T13:22:26;3.70;;;1.83;;
45358;SDS011;31096;49.292;8.710;2022-09-17T13:27:23;4.05;;;1.95;;
45358;SDS011;31096;49.292;8.710;2022-09-17T13:32:49;3.97;;;1.60;;
45358;SDS011;31096;49.292;8.710;2022-09-17T13:37:34;4.28;;;1.75;;
45358;SDS011;31096;49.292;8.710;2022-09-17T13:42:44;3.65;;;1.50;;
45358;SDS011;31096;49.292;8.710;2022-09-17T13:47:37;3.70;;;2.00;;
45358;SDS011;31096;49.292;8.710;2022-09-17T13:52:39;5.45;;;1.80;;
45358;SDS011;31096;49.292;8.710;2022-09-17T13:57:43;3.22;;;1.52;;
45358;SDS011;31096;49.292;8.710;2022-09-17T14:02:37;3.30;;;1.67;;
45358;SDS011;31096;49.292;8.710;2022-09-17T14:07:30;3.93;;;2.17;;
45358;SDS011;31096;49.292;8.710;2022-09-17T14:17:49;3.70;;;1.70;;
45358;SDS011;31096;49.292;8.710;2022-09-17T14:22:43;3.80;;;1.90;;
45358;SDS011;31096;49.292;8.710;2022-09-17T14:27:43;5.25;;;2.00;;
45358;SDS011;31096;49.292;8.710;2022-09-17T14:37:52;3.30;;;1.85;;
45358;SDS011;31096;49.292;8.710;2022-09-17T14:42:48;3.50;;;2.00;;
45358;SDS011;31096;49.292;8.710;2022-09-17T14:47:44;5.83;;;2.17;;
45358;SDS011;31096;49.292;8.710;2022-09-17T14:52:37;5.43;;;2.30;;
45358;SDS011;31096;49.292;8.710;2022-09-17T14:57:27;4.67;;;2.13;;
45358;SDS011;31096;49.292;8.710;2022-09-17T15:02:38;3.75;;;1.80;;
45358;SDS011;31096;49.292;8.710;2022-09-17T15:07:32;3.78;;;2.00;;
45358;SDS011;31096;49.292;8.710;2022-09-17T15:12:25;4.77;;;1.63;;
45358;SDS011;31096;49.292;8.710;2022-09-17T15:17:18;4.00;;;1.92;;
45358;SDS011;31096;49.292;8.710;2022-09-17T15:22:11;3.50;;;2.00;;
45358;SDS011;31096;49.292;8.710;2022-09-17T15:27:14;4.78;;;1.70;;
45358;SDS011;31096;49.292;8.710;2022-09-17T15:32:28;5.60;;;1.52;;
45358;SDS011;31096;49.292;8.710;2022-09-17T15:37:20;3.30;;;1.53;;
45358;SDS011;31096;49.292;8.710;2022-09-17T15:42:22;4.00;;;1.63;;
45358;SDS011;31096;49.292;8.710;2022-09-17T15:47:35;4.15;;;1.92;;
45358;SDS011;31096;49.292;8.710;2022-09-17T15:52:45;4.13;;;1.73;;
45358;SDS011;31096;49.292;8.710;2022-09-17T15:57:36;5.00;;;1.52;;
45358;SDS011;31096;49.292;8.710;2022-09-17T16:02:28;4.03;;;1.77;;
45358;SDS011;31096;49.292;8.710;2022-09-17T16:07:29;3.92;;;1.55;;
45358;SDS011;31096;49.292;8.710;2022-09-17T16:12:21;6.38;;;1.60;;
45358;SDS011;31096;49.292;8.710;2022-09-17T16:17:21;3.00;;;1.30;;
45358;SDS011;31096;49.292;8.710;2022-09-17T16:22:23;3.77;;;1.40;;
45358;SDS011;31096;49.292;8.710;2022-09-17T16:27:17;4.72;;;2.10;;
45358;SDS011;31096;49.292;8.710;2022-09-17T16:32:11;4.43;;;1.95;;
45358;SDS011;31096;49.292;8.710;2022-09-17T16:37:02;3.70;;;1.80;;
45358;SDS011;31096;49.292;8.710;2022-09-17T16:41:53;4.05;;;1.92;;
45358;SDS011;31096;49.292;8.710;2022-09-17T16:46:43;4.70;;;1.67;;
45358;SDS011;31096;49.292;8.710;2022-09-17T16:51:34;4.00;;;1.60;;
45358;SDS011;31096;49.292;8.710;2022-09-17T16:56:25;3.65;;;1.38;;
45358;SDS011;31096;49.292;8.710;2022-09-17T17:01:16;3.67;;;1.80;;
45358;SDS011;31096;49.292;8.710;2022-09-17T17:06:16;3.55;;;1.45;;
45358;SDS011;31096;49.292;8.710;2022-09-17T17:11:08;4.47;;;1.60;;
45358;SDS011;31096;49.292;8.710;2022-09-17T17:16:04;3.80;;;1.92;;
45358;SDS011;31096;49.292;8.710;2022-09-17T17:21:05;5.40;;;1.63;;
45358;SDS011;31096;49.292;8.710;2022-09-17T17:25:58;3.60;;;1.67;;
45358;SDS011;31096;49.292;8.710;2022-09-17T17:30:49;3.40;;;2.00;;
45358;SDS011;31096;49.292;8.710;2022-09-17T17:35:39;4.37;;;1.50;;
45358;SDS011;31096;49.292;8.710;2022-09-17T17:40:30;5.57;;;1.60;;
45358;SDS011;31096;49.292;8.710;2022-09-17T17:45:21;6.33;;;2.00;;
45358;SDS011;31096;49.292;8.710;2022-09-17T17:50:12;3.40;;;1.43;;
45358;SDS011;31096;49.292;8.710;2022-09-17T17:55:05;4.88;;;1.30;;
45358;SDS011;31096;49.292;8.710;2022-09-17T17:59:56;4.65;;;1.92;;
45358;SDS011;31096;49.292;8.710;2022-09-17T18:04:47;3.43;;;1.50;;
45358;SDS011;31096;49.292;8.710;2022-09-17T18:09:37;7.28;;;2.08;;
45358;SDS011;31096;49.292;8.710;2022-09-17T18:14:28;7.13;;;2.07;;
45358;SDS011;31096;49.292;8.710;2022-09-17T18:19:19;4.18;;;2.03;;
45358;SDS011;31096;49.292;8.710;2022-09-17T18:24:10;3.80;;;1.70;;
45358;SDS011;31096;49.292;8.710;2022-09-17T18:29:00;4.07;;;1.53;;
45358;SDS011;31096;49.292;8.710;2022-09-17T18:38:46;9.53;;;5.07;;
45358;SDS011;31096;49.292;8.710;2022-09-17T18:43:37;8.40;;;4.60;;
45358;SDS011;31096;49.292;8.710;2022-09-17T18:48:29;5.97;;;3.88;;
45358;SDS011;31096;49.292;8.710;2022-09-17T18:53:20;3.93;;;2.10;;
45358;SDS011;31096;49.292;8.710;2022-09-17T18:58:14;4.17;;;1.97;;
45358;SDS011;31096;49.292;8.710;2022-09-17T19:03:05;3.58;;;1.70;;
45358;SDS011;31096;49.292;8.710;2022-09-17T19:07:55;4.27;;;1.60;;
45358;SDS011;31096;49.292;8.710;2022-09-17T19:12:46;5.73;;;2.03;;
45358;SDS011;31096;49.292;8.710;2022-09-17T19:17:38;4.72;;;2.05;;
45358;SDS011;31096;49.292;8.710;2022-09-17T19:22:29;5.17;;;1.60;;
45358;SDS011;31096;49.292;8.710;2022-09-17T19:27:21;4.20;;;1.83;;
45358;SDS011;31096;49.292;8.710;2022-09-17T19:32:11;3.42;;;1.40;;
45358;SDS011;31096;49.292;8.710;2022-09-17T19:37:02;3.90;;;1.60;;
45358;SDS011;31096;49.292;8.710;2022-09-17T19:48:01;3.67;;;1.67;;
45358;SDS011;31096;49.292;8.710;2022-09-17T19:52:52;4.05;;;1.58;;
45358;SDS011;31096;49.292;8.710;2022-09-17T19:57:43;4.97;;;1.57;;
45358;SDS011;31096;49.292;8.710;2022-09-17T20:02:33;5.47;;;1.58;;
45358;SDS011;31096;49.292;8.710;2022-09-17T20:07:26;4.03;;;1.57;;
45358;SDS011;31096;49.292;8.710;2022-09-17T20:12:17;5.60;;;1.30;;
45358;SDS011;31096;49.292;8.710;2022-09-17T20:17:08;3.60;;;1.50;;
45358;SDS011;31096;49.292;8.710;2022-09-17T20:22:01;3.60;;;1.70;;
45358;SDS011;31096;49.292;8.710;2022-09-17T20:26:51;3.40;;;1.40;;
45358;SDS011;31096;49.292;8.710;2022-09-17T20:31:42;4.35;;;1.48;;
45358;SDS011;31096;49.292;8.710;2022-09-17T20:36:33;3.80;;;1.40;;
45358;SDS011;31096;49.292;8.710;2022-09-17T20:41:25;4.15;;;1.80;;
45358;SDS011;31096;49.292;8.710;2022-09-17T20:46:21;3.33;;;1.40;;
45358;SDS011;31096;49.292;8.710;2022-09-17T20:51:14;4.37;;;1.73;;
45358;SDS011;31096;49.292;8.710;2022-09-17T20:56:11;5.43;;;1.73;;
45358;SDS011;31096;49.292;8.710;2022-09-17T21:01:08;3.63;;;1.80;;
45358;SDS011;31096;49.292;8.710;2022-09-17T21:06:02;3.50;;;1.50;;
45358;SDS011;31096;49.292;8.710;2022-09-17T21:10:53;3.67;;;1.50;;
45358;SDS011;31096;49.292;8.710;2022-09-17T21:15:56;3.70;;;1.30;;
45358;SDS011;31096;49.292;8.710;2022-09-17T21:20:49;3.13;;;1.38;;
45358;SDS011;31096;49.292;8.710;2022-09-17T21:25:40;4.45;;;1.20;;
45358;SDS011;31096;49.292;8.710;2022-09-17T21:30:30;5.10;;;1.60;;
45358;SDS011;31096;49.292;8.710;2022-09-17T21:35:21;3.78;;;1.73;;
45358;SDS011;31096;49.292;8.710;2022-09-17T21:40:14;5.67;;;1.80;;
45358;SDS011;31096;49.292;8.710;2022-09-17T21:45:05;4.22;;;1.70;;
45358;SDS011;31096;49.292;8.710;2022-09-17T21:49:56;4.70;;;1.73;;
45358;SDS011;31096;49.292;8.710;2022-09-17T21:54:47;4.28;;;1.50;;
45358;SDS011;31096;49.292;8.710;2022-09-17T21:59:38;4.13;;;1.80;;
45358;SDS011;31096;49.292;8.710;2022-09-17T22:04:30;4.57;;;1.70;;
45358;SDS011;31096;49.292;8.710;2022-09-17T22:09:23;4.75;;;1.60;;
45358;SDS011;31096;49.292;8.710;2022-09-17T22:14:16;6.23;;;1.80;;
45358;SDS011;31096;49.292;8.710;2022-09-17T22:19:11;4.13;;;1.25;;
45358;SDS011;31096;49.292;8.710;2022-09-17T22:24:05;4.85;;;1.90;;
45358;SDS011;31096;49.292;8.710;2022-09-17T22:29:01;4.80;;;1.97;;
45358;SDS011;31096;49.292;8.710;2022-09-17T22:33:56;5.00;;;2.00;;
45358;SDS011;31096;49.292;8.710;2022-09-17T22:38:50;4.75;;;1.77;;
45358;SDS011;31096;49.292;8.710;2022-09-17T22:43:45;3.45;;;1.77;;
45358;SDS011;31096;49.292;8.710;2022-09-17T22:48:38;4.40;;;2.00;;
45358;SDS011;31096;49.292;8.710;2022-09-17T22:53:31;4.80;;;2.00;;
45358;SDS011;31096;49.292;8.710;2022-09-17T22:58:23;4.55;;;1.75;;
45358;SDS011;31096;49.292;8.710;2022-09-17T23:03:14;4.90;;;2.00;;
45358;SDS011;31096;49.292;8.710;2022-09-17T23:08:04;4.37;;;1.90;;
45358;SDS011;31096;49.292;8.710;2022-09-17T23:12:56;6.32;;;1.80;;
45358;SDS011;31096;49.292;8.710;2022-09-17T23:17:46;4.60;;;2.10;;
45358;SDS011;31096;49.292;8.710;2022-09-17T23:22:37;5.50;;;2.47;;
45358;SDS011;31096;49.292;8.710;2022-09-17T23:27:27;3.87;;;2.07;;
45358;SDS011;31096;49.292;8.710;2022-09-17T23:32:18;3.40;;;1.77;;
45358;SDS011;31096;49.292;8.710;2022-09-17T23:37:09;3.87;;;2.10;;
45358;SDS011;31096;49.292;8.710;2022-09-17T23:41:59;4.23;;;1.60;;
45358;SDS011;31096;49.292;8.710;2022-09-17T23:46:50;5.03;;;1.80;;
45358;SDS011;31096;49.292;8.710;2022-09-17T23:51:41;4.47;;;1.80;;
45358;SDS011;31096;49.292;8.710;2022-09-17T23:56:31;4.30;;;1.80;;
